Date,TemperatureHighF,TemperatureAvgF,TemperatureLowF,DewpointHighF,DewpointAvgF,DewpointLowF,HumidityHigh,HumidityAvg,HumidityLow,PressureMaxIn,PressureMinIn,WindSpeedMaxMPH,WindSpeedAvgMPH,GustSpeedMaxMPH,PrecipitationSumIn
2013-1-1,34,27,16,28,16,-3,87,63,34,29.87,29.63,10,4,20,0.00
2013-1-2,25,18,8,13,6,-3,75,60,46,30.04,29.85,9,4,21,0.00
2013-1-3,21,11,3,6,0,-5,76,63,40,30.08,29.93,5,0,10,0.00
2013-1-4,35,27,15,25,20,5,88,74,44,29.93,29.74,4,2,10,0.01
2013-1-5,36,31,22,25,20,15,84,65,43,30.23,29.78,9,3,23,0.00
2013-1-6,39,30,22,28,25,17,95,81,52,30.18,29.90,4,1,10,0.01
2013-1-7,33,28,22,29,24,13,100,86,50,30.36,29.91,5,2,8,0.00
2013-1-8,43,34,27,29,27,24,94,76,51,30.31,30.18,7,2,14,0.00
2013-1-9,40,34,26,34,28,17,94,81,43,30.36,29.91,5,2,12,0.01
2013-1-10,42,38,29,31,26,13,88,61,31,30.48,29.93,11,5,25,0.00
2013-1-11,38,33,26,38,28,17,97,84,45,30.47,30.20,6,2,11,0.07
2013-1-12,42,39,38,41,39,27,100,98,61,30.20,30.09,6,2,13,0.01
2013-1-13,46,42,40,46,42,39,100,100,99,30.12,29.94,5,2,10,0.00
2013-1-14,58,48,38,50,41,27,100,79,47,30.18,29.83,7,3,14,0.00
2013-1-15,39,35,31,29,27,17,90,72,43,30.27,30.18,3,1,6,0.00
2013-1-16,32,31,29,32,29,15,100,94,53,30.21,29.78,3,0,4,0.00
2013-1-17,39,31,26,33,25,8,100,79,37,30.07,29.77,7,2,14,0.40
2013-1-18,25,19,13,13,1,-12,61,46,23,30.39,30.02,8,3,20,0.00
2013-1-19,43,29,22,27,17,9,68,60,49,30.31,29.87,6,4,13,0.04
2013-1-20,50,42,29,32,29,7,81,61,29,29.82,29.46,9,5,20,0.04
2013-1-21,28,24,20,19,10,-4,86,55,30,30.03,29.78,11,2,24,0.00
2013-1-22,24,21,14,19,14,-4,84,75,34,30.02,29.71,8,3,13,0.00
2013-1-23,10,7,2,1,-9,-25,72,48,24,30.10,30.00,10,2,20,0.00
2013-1-24,16,7,0,-5,-9,-22,62,48,19,30.13,29.98,10,2,22,0.00
2013-1-25,21,15,6,7,-2,-14,66,48,21,30.21,30.03,10,3,23,0.00
2013-1-26,24,17,12,13,4,-4,89,60,36,30.15,29.96,10,3,18,0.00
2013-1-27,28,19,13,5,1,-17,65,47,16,30.40,30.14,9,4,17,0.00
2013-1-28,26,22,15,25,9,-9,100,62,33,30.40,30.01,3,1,6,0.00
2013-1-29,35,29,24,31,26,11,100,90,47,30.16,30.01,3,0,6,0.08
2013-1-30,54,42,31,53,41,31,100,99,63,30.12,29.43,7,3,13,0.36
2013-1-31,57,43,31,56,33,13,100,70,44,29.49,28.89,14,8,35,0.22
2013-2-1,32,27,18,19,11,-6,73,50,22,30.02,29.49,9,5,20,0.00
2013-2-2,29,24,15,14,9,6,69,54,40,30.19,30.01,6,3,12,0.00
2013-2-3,28,25,20,21,18,13,96,76,58,30.01,29.68,6,2,10,0.00
2013-2-4,30,25,20,18,10,3,77,53,36,29.86,29.66,10,5,21,0.00
2013-2-5,29,22,13,21,8,-4,76,57,35,30.01,29.86,6,2,10,0.00
2013-2-6,35,27,21,24,18,-1,97,71,35,30.26,29.89,8,2,16,0.02
2013-2-7,27,22,15,15,2,-2,63,42,29,30.49,30.26,6,2,15,0.00
2013-2-8,29,19,15,29,18,13,100,95,68,30.44,29.68,14,7,34,0.00
2013-2-9,21,18,13,19,13,5,97,83,51,30.11,29.55,15,8,34,0.00
2013-2-10,36,22,10,19,9,2,93,59,31,30.34,30.12,6,2,13,0.00
2013-2-11,37,28,16,37,26,14,100,94,66,30.31,29.57,8,2,15,2.54
2013-2-12,43,38,32,33,30,16,100,73,42,29.79,29.53,8,3,18,0.00
2013-2-13,42,33,0,28,24,13,90,70,45,29.83,29.69,5,2,10,0.00
2013-2-14,42,35,29,29,24,10,82,66,40,29.95,29.67,5,2,10,0.00
2013-2-15,44,35,27,36,30,20,92,82,46,29.96,29.86,8,3,14,0.00
2013-2-16,39,34,29,33,29,17,98,83,49,29.91,29.70,8,3,13,0.01
2013-2-17,30,22,16,22,13,4,96,71,46,29.70,29.27,14,8,30,0.01
2013-2-18,32,22,13,8,4,-16,65,46,14,30.04,29.52,15,8,29,0.00
2013-2-19,39,32,22,39,20,3,100,64,38,30.09,29.53,13,4,20,0.50
2013-2-20,38,33,27,38,25,15,100,73,52,29.68,29.45,8,4,17,0.01
2013-2-21,31,26,22,20,14,2,70,60,34,30.12,29.67,10,5,18,0.00
2013-2-22,37,30,22,28,22,9,91,71,36,30.35,30.12,8,2,13,0.00
2013-2-23,37,34,29,35,30,20,98,87,49,30.30,29.93,10,3,18,0.06
2013-2-24,36,33,29,36,33,29,100,100,98,29.93,29.70,8,4,13,0.22
2013-2-25,38,32,26,32,29,13,100,90,48,30.20,29.89,4,1,6,0.31
2013-2-26,40,34,29,35,31,22,100,89,65,30.31,30.16,6,2,15,0.00
2013-2-27,40,36,33,37,35,23,100,93,65,30.17,29.60,14,8,27,1.13
2013-2-28,44,36,32,37,34,22,100,91,43,29.60,29.50,9,3,14,0.01
2013-3-1,39,34,31,33,30,18,99,85,44,29.65,29.51,7,3,13,0.00
2013-3-2,45,36,31,33,30,28,100,80,53,29.64,29.57,7,2,9,0.00
2013-3-3,39,35,31,36,32,26,100,89,74,29.61,29.53,6,2,13,0.13
2013-3-4,36,32,29,27,25,13,79,72,50,29.68,29.52,9,5,21,0.00
2013-3-5,43,36,30,34,30,23,94,78,63,30.05,29.68,7,3,13,0.00
2013-3-6,37,35,31,36,33,23,100,94,71,30.14,30.04,12,8,23,0.11
2013-3-7,33,32,29,32,29,26,99,89,77,30.11,29.99,11,7,22,0.02
2013-3-8,43,34,27,30,26,21,100,75,44,30.13,29.93,11,7,19,0.12
2013-3-9,41,35,27,31,26,21,100,69,52,30.33,30.12,9,4,16,0.00
2013-3-10,40,32,24,33,29,24,100,89,70,30.39,30.28,7,2,12,0.00
2013-3-11,42,38,33,39,36,32,97,91,79,30.27,30.13,5,4,10,0.00
2013-3-12,48,41,38,48,41,38,100,100,97,30.13,29.71,8,5,17,0.11
2013-3-13,51,43,34,45,36,24,100,80,49,29.74,29.66,6,3,13,0.00
2013-3-14,38,31,23,27,20,-2,82,65,32,29.76,29.64,10,4,22,0.00
2013-3-15,41,27,19,31,12,6,100,57,34,29.80,29.60,8,5,18,0.00
2013-3-16,35,31,27,28,20,14,92,66,43,29.84,29.65,5,3,11,0.01
2013-3-17,37,29,23,21,10,2,81,46,33,30.28,29.86,8,4,16,0.00
2013-3-18,34,27,17,26,16,3,75,62,40,30.42,30.24,6,3,12,0.00
2013-3-19,33,31,26,33,30,26,100,97,88,30.21,29.64,12,6,21,0.00
2013-3-20,37,31,24,30,25,24,100,79,63,29.75,29.64,7,4,14,0.20
2013-3-21,37,30,25,29,24,22,96,79,58,29.75,29.59,5,2,8,0.12
2013-3-22,40,34,28,30,24,20,95,66,46,29.67,29.56,6,2,12,0.03
2013-3-23,41,33,27,25,22,20,79,66,44,29.69,29.57,10,5,23,0.00
2013-3-24,46,37,32,33,27,24,89,67,46,29.77,29.69,6,4,15,0.00
2013-3-25,39,34,0,34,31,27,95,84,77,29.74,29.54,9,5,16,0.00
2013-3-26,50,40,34,32,26,23,88,59,34,29.73,29.53,6,4,10,0.00
2013-3-27,53,42,32,36,29,24,93,63,37,29.84,29.70,5,3,10,0.00
2013-3-28,46,39,35,38,36,31,100,88,55,29.96,29.84,4,3,7,0.02
2013-3-29,56,43,35,38,34,30,93,75,39,29.99,29.93,6,3,13,0.00
2013-3-30,52,47,35,48,37,32,92,69,47,30.06,29.98,7,4,13,0.00
2013-3-31,49,40,30,40,34,26,95,79,44,30.09,29.80,8,4,15,0.00
2013-4-1,56,42,34,44,32,16,100,70,44,29.72,29.50,9,5,18,0.13
2013-4-2,39,33,30,17,16,13,55,48,36,29.85,29.72,8,4,16,0.00
2013-4-3,45,36,30,21,15,10,60,43,25,30.04,29.84,9,5,16,0.00
2013-4-4,54,39,32,35,20,16,77,48,24,30.21,29.98,8,4,15,0.00
2013-4-5,50,43,38,40,29,24,77,58,41,29.95,29.63,11,4,20,0.00
2013-4-6,43,37,30,21,12,8,55,37,23,30.30,29.86,10,5,18,0.00
2013-4-7,49,39,27,39,31,20,85,72,63,30.29,29.95,12,4,20,0.00
2013-4-8,61,49,42,42,40,38,95,73,43,30.09,29.90,5,3,13,0.00
2013-4-9,63,47,42,50,43,40,98,86,55,30.08,29.85,8,3,16,0.05
2013-4-10,49,45,43,47,44,42,100,97,90,29.96,29.85,6,2,10,0.31
2013-4-11,47,44,42,44,40,31,100,85,63,30.11,29.84,6,2,10,0.08
2013-4-12,41,37,35,37,32,27,100,84,58,30.17,29.83,9,7,17,0.13
2013-4-13,45,40,34,40,38,34,100,92,79,29.89,29.76,9,4,13,0.04
2013-4-14,61,46,38,41,33,32,99,68,48,30.16,29.88,8,2,13,0.00
2013-4-15,51,42,32,41,37,32,97,85,53,30.36,30.16,9,4,13,0.00
2013-4-16,56,46,40,51,42,37,93,86,72,30.37,30.00,10,5,20,0.00
2013-4-17,64,54,44,53,41,33,88,63,31,30.30,29.98,6,3,14,0.00
2013-4-18,50,46,35,43,40,32,91,81,63,30.42,30.14,8,5,15,0.00
2013-4-19,61,52,46,60,51,43,100,94,83,30.14,29.63,9,5,18,0.00
2013-4-20,60,52,43,60,41,24,100,69,40,30.15,29.57,9,4,16,0.33
2013-4-21,51,42,34,33,27,21,93,56,36,30.64,30.15,8,4,16,0.00
2013-4-22,48,41,32,37,33,27,95,74,56,30.75,30.58,9,4,19,0.00
2013-4-23,41,40,38,41,38,32,100,94,77,30.54,30.13,9,5,18,0.05
2013-4-24,63,49,41,54,46,41,100,91,70,30.13,29.78,8,5,16,0.01
2013-4-25,65,55,46,52,40,28,97,60,30,30.24,29.78,8,4,16,0.01
2013-4-26,53,48,40,42,35,28,100,63,46,30.41,30.24,8,4,14,0.00
2013-4-27,56,46,37,45,41,37,100,84,53,30.39,30.28,7,3,10,0.00
2013-4-28,57,48,38,46,43,38,100,84,63,30.32,30.22,8,3,11,0.00
2013-4-29,57,49,43,50,44,39,99,82,67,30.24,30.19,8,2,12,0.00
2013-4-30,59,50,40,47,43,36,99,77,53,30.36,30.21,7,2,11,0.00
2013-5-1,57,48,37,50,44,37,100,86,67,30.45,30.35,8,2,11,0.00
2013-5-2,63,48,41,50,44,40,100,85,56,30.47,30.37,12,2,21,0.00
2013-5-3,54,47,40,45,42,38,99,83,67,30.51,30.35,8,3,14,0.00
2013-5-4,54,46,38,47,42,38,100,85,65,30.36,30.31,7,3,12,0.00
2013-5-5,54,46,35,46,41,35,100,86,62,30.32,30.25,9,3,14,0.00
2013-5-6,54,45,36,48,44,36,100,96,82,30.27,30.15,9,3,13,0.00
2013-5-7,61,52,43,54,50,43,100,93,75,30.15,30.09,7,2,12,0.01
2013-5-8,64,56,50,59,54,50,100,96,83,30.22,30.07,6,2,11,0.00
2013-5-9,61,55,53,59,55,53,100,99,90,30.07,29.89,6,2,9,0.96
2013-5-10,61,55,53,58,54,53,100,98,89,29.94,29.88,7,2,11,0.01
2013-5-11,68,59,52,63,57,52,100,96,82,29.89,29.68,7,3,13,0.08
2013-5-12,71,58,50,61,52,31,100,82,46,29.75,29.54,8,2,14,0.07
2013-5-13,59,50,42,38,34,31,72,54,39,29.99,29.75,5,3,13,0.00
2013-5-14,62,49,39,44,38,31,87,66,33,30.01,29.92,3,1,13,0.00
2013-5-15,57,49,38,51,44,38,100,86,52,30.01,29.64,9,2,18,0.02
2013-5-16,80,63,47,53,46,41,100,62,26,29.79,29.59,7,2,17,0.00
2013-5-17,65,56,50,49,46,42,84,69,52,30.18,29.79,6,2,10,0.00
2013-5-18,62,53,44,51,48,44,100,84,53,30.28,30.19,8,3,13,0.00
2013-5-19,57,50,39,52,49,34,100,94,80,30.34,30.22,6,2,14,0.01
2013-5-20,72,57,50,65,56,50,100,95,74,30.22,29.91,5,2,10,0.12
2013-5-21,58,53,49,56,52,49,100,98,90,30.05,29.93,6,3,13,0.00
2013-5-22,56,52,49,54,51,49,100,98,89,30.03,29.86,6,2,13,1.00
2013-5-23,63,56,50,63,56,50,100,99,92,29.92,29.79,6,2,14,0.07
2013-5-24,64,58,50,64,58,50,100,100,97,29.81,29.63,7,3,12,0.88
2013-5-25,52,48,40,52,48,40,100,100,98,29.81,29.65,6,3,13,0.53
2013-5-26,60,49,40,47,42,40,100,80,57,30.02,29.61,6,3,16,0.39
2013-5-27,70,55,42,46,42,38,97,65,34,30.15,30.02,6,2,11,0.00
2013-5-28,66,54,43,51,47,39,100,78,38,30.23,30.15,5,1,8,0.00
2013-5-29,61,55,50,60,54,50,100,100,95,30.16,29.97,4,1,8,0.27
2013-5-30,86,73,55,70,64,55,100,75,46,30.03,29.97,3,0,10,0.00
2013-5-31,92,73,62,71,65,62,100,78,44,30.05,29.90,3,0,7,0.00
2013-6-1,90,73,63,72,65,61,99,79,52,29.94,29.82,5,0,10,0.00
2013-6-2,85,70,62,69,64,60,97,83,50,29.84,29.68,8,2,18,0.00
2013-6-3,68,64,60,66,61,53,100,91,65,29.82,29.72,5,1,8,0.04
2013-6-4,68,60,53,52,49,46,82,67,46,30.04,29.79,5,2,10,0.00
2013-6-5,66,58,50,55,52,48,99,81,52,30.14,30.06,6,2,10,0.00
2013-6-6,66,58,54,57,54,52,98,89,61,30.16,30.10,5,1,10,0.00
2013-6-7,56,54,52,55,53,52,100,99,93,30.11,29.84,5,2,11,0.92
2013-6-8,74,60,52,66,57,52,100,91,73,29.96,29.60,5,3,12,0.81
2013-6-9,76,64,56,61,59,56,100,85,54,30.12,29.98,3,1,6,0.00
2013-6-10,66,61,54,58,57,54,100,86,72,30.20,30.04,4,2,10,0.12
2013-6-11,57,55,54,56,55,54,100,100,96,29.99,29.57,6,3,17,0.80
2013-6-12,65,60,55,61,58,55,100,91,79,29.78,29.54,4,2,10,0.01
2013-6-13,68,57,52,58,55,52,100,94,64,29.79,29.71,4,1,9,0.13
2013-6-14,70,59,52,62,57,52,100,92,71,29.75,29.66,5,1,9,0.42
2013-6-15,78,65,54,57,53,47,100,70,37,29.91,29.75,3,1,8,0.00
2013-6-16,72,63,53,62,58,53,100,83,64,29.90,29.69,4,1,9,0.00
2013-6-17,84,66,59,66,61,58,100,85,47,29.88,29.73,6,1,17,0.88
2013-6-18,68,61,57,63,59,56,100,94,75,29.95,29.86,4,0,9,0.01
2013-6-19,70,59,55,57,56,52,100,89,57,30.00,29.90,6,1,11,0.00
2013-6-20,69,62,51,65,57,51,100,82,61,30.23,30.18,5,2,9,0.00
2013-6-21,73,60,57,64,58,57,99,93,72,30.21,30.18,3,0,5,0.00
2013-6-22,81,69,64,72,64,62,100,85,71,30.17,30.12,4,2,7,0.00
2013-6-23,76,71,64,70,66,61,97,85,75,30.12,29.94,4,2,8,0.00
2013-6-24,88,73,65,88,70,64,98,86,69,29.98,29.85,4,1,8,0.00
2013-6-25,92,86,75,92,72,72,80,56,66,29.85,29.72,0,0,5,0.01
2013-6-26,86,72,61,86,71,61,100,97,86,29.87,29.73,3,0,10,0.50
2013-6-27,73,61,44,65,60,43,100,99,99,29.88,29.83,2,0,5,0.01
2013-6-28,68,65,56,-100,0,200,0,0,100,0.00,40.00,5,2,8,0.00
2013-6-29,75,68,62,72,31,66,100,42,83,0.00,40.00,7,2,14,0.00
2013-6-30,78,71,65,76,70,65,100,97,87,0.00,40.00,6,2,11,0.00
2013-7-1,71,67,65,71,67,65,100,100,97,0.00,40.00,4,1,6,0.76
2013-7-2,70,62,57,70,62,57,100,100,100,0.00,40.00,4,1,9,0.07
2013-7-3,72,62,57,72,62,57,100,99,91,0.00,40.00,4,1,7,0.00
2013-7-4,89,77,71,80,74,71,100,92,72,0.00,40.00,4,0,7,0.00
2013-7-5,88,79,73,79,76,73,100,88,71,0.00,40.00,4,0,8,0.00
2013-7-6,92,80,66,79,75,50,100,83,55,29.99,29.76,2,0,9,0.00
2013-7-7,89,76,68,76,71,68,100,86,61,29.94,29.61,1,0,5,0.04
2013-7-8,79,71,63,75,69,63,100,95,76,30.33,29.60,4,0,10,0.04
2013-7-9,71,67,64,69,66,64,100,96,84,30.31,29.86,4,1,9,0.00
2013-7-10,76,70,65,74,69,65,100,98,92,29.94,28.85,4,1,7,0.08
2013-7-11,81,73,68,78,67,53,100,85,55,29.40,28.76,3,0,6,0.05
2013-7-12,77,69,63,68,64,60,100,84,59,30.35,29.40,5,1,14,0.00
2013-7-13,75,68,62,68,64,60,100,88,63,30.72,30.34,4,1,7,0.00
2013-7-14,85,74,66,78,72,66,100,94,73,30.63,30.29,5,1,7,0.00
2013-7-15,91,79,68,76,71,68,100,80,51,30.28,29.90,5,2,8,0.00
2013-7-16,94,80,72,77,70,66,86,72,49,30.18,29.93,4,1,7,0.00
2013-7-17,87,77,71,74,70,67,91,79,64,30.19,29.49,7,2,11,0.21
2013-7-18,86,78,73,77,72,70,92,82,65,29.65,29.38,5,1,8,0.00
2013-7-19,94,84,68,82,77,54,100,80,58,29.20,29.05,4,1,11,0.00
2013-7-20,90,81,72,79,73,68,92,77,62,0.00,40.00,4,1,8,0.00
2013-7-21,76,70,66,69,66,60,100,87,61,0.00,40.00,5,2,10,0.00
2013-7-22,78,68,65,72,68,65,100,97,77,0.00,40.00,5,1,9,0.00
2013-7-23,69,67,65,69,67,65,100,100,100,0.00,40.00,4,1,8,1.47
2013-7-24,82,71,63,76,68,60,100,90,76,0.00,40.00,4,1,8,0.00
2013-7-25,64,61,58,60,58,55,100,90,82,0.00,40.00,4,1,9,0.08
2013-7-26,70,65,60,70,65,60,100,99,95,0.00,40.00,4,1,8,0.06
2013-7-27,84,68,61,70,66,61,100,93,56,0.00,40.00,5,2,8,0.01
2013-7-28,69,65,63,69,65,63,100,100,100,0.00,40.00,4,1,8,0.02
2013-7-29,71,65,63,70,65,63,100,100,98,0.00,40.00,4,1,8,0.01
2013-7-30,81,70,62,70,64,60,100,85,52,0.00,40.00,2,0,7,0.01
2013-7-31,76,66,59,67,63,59,100,91,67,0.00,40.00,6,1,9,0.00
2013-8-1,75,68,60,70,67,60,100,95,84,0.00,40.00,6,2,10,0.02
2013-8-2,76,70,64,73,66,62,100,90,67,0.00,40.00,6,1,11,0.14
2013-8-3,78,69,62,68,64,62,100,84,62,0.00,40.00,3,1,7,0.00
2013-8-4,78,67,59,67,62,58,100,83,61,0.00,40.00,1,0,5,0.00
2013-8-5,74,64,56,58,54,49,100,70,45,0.00,40.00,5,2,10,0.00
2013-8-6,74,63,51,64,58,49,100,86,62,0.00,40.00,4,1,7,0.00
2013-8-7,73,64,54,68,62,54,100,91,76,0.00,40.00,6,2,12,0.00
2013-8-8,78,69,61,73,67,60,100,95,82,0.00,40.00,5,2,10,0.00
2013-8-9,70,67,64,70,67,64,100,100,100,0.00,40.00,8,2,16,1.29
2013-8-10,82,70,60,70,64,56,100,83,50,0.00,40.00,4,1,10,0.01
2013-8-11,78,63,54,64,60,54,100,90,58,0.00,40.00,4,1,7,0.00
2013-8-12,81,67,57,66,62,57,100,85,55,0.00,40.00,3,1,7,0.00
2013-8-13,68,64,61,68,64,61,100,100,99,0.00,40.00,3,1,7,0.00
2013-8-14,73,64,59,63,60,55,100,89,58,0.00,40.00,5,1,13,0.00
2013-8-15,77,59,54,60,56,54,100,90,50,0.00,40.00,3,0,8,0.00
2013-8-16,77,64,54,64,59,54,100,86,58,0.00,40.00,3,0,6,0.00
2013-8-17,76,64,56,65,61,56,100,89,65,0.00,40.00,4,1,12,0.00
2013-8-18,70,64,56,67,62,56,100,95,79,0.00,40.00,4,1,7,0.00
2013-8-19,81,70,59,70,65,59,100,86,63,0.00,40.00,3,1,7,0.00
2013-8-20,81,69,61,69,65,61,100,89,61,0.00,40.00,4,1,7,0.00
2013-8-21,78,69,62,70,66,62,100,92,73,0.00,40.00,4,1,7,0.00
2013-8-22,81,70,63,73,68,63,100,93,67,0.00,40.00,5,1,8,0.00
2013-8-23,80,69,61,71,64,54,100,83,53,0.00,40.00,4,1,8,0.00
2013-8-24,75,62,53,60,55,50,100,78,41,0.00,40.00,5,1,8,0.00
2013-8-25,74,62,53,63,58,53,100,88,54,0.00,40.00,4,1,7,0.00
2013-8-26,83,70,61,73,67,60,100,89,68,0.00,40.00,2,0,8,0.04
2013-8-27,82,71,64,73,68,64,100,93,67,0.00,40.00,5,1,9,0.00
2013-8-28,70,65,61,69,65,61,100,99,93,0.00,40.00,5,1,7,0.00
2013-8-29,65,64,61,65,63,61,100,99,91,0.00,40.00,5,2,13,0.03
2013-8-30,80,68,61,71,66,61,100,94,71,0.00,40.00,5,1,8,0.00
2013-8-31,77,70,66,74,69,66,100,99,87,0.00,40.00,4,1,7,0.00
2013-9-1,83,71,66,76,70,66,100,96,73,0.00,40.00,6,1,9,0.24
2013-9-2,70,68,65,70,68,65,100,100,100,0.00,40.00,5,1,8,2.05
2013-9-3,75,69,64,74,69,64,100,99,93,0.00,40.00,4,1,6,0.01
2013-9-4,80,68,60,67,62,60,100,83,57,0.00,40.00,4,1,11,0.00
2013-9-5,68,61,52,62,59,50,100,93,70,0.00,40.00,5,1,11,0.02
2013-9-6,70,57,46,55,50,46,100,80,46,0.00,40.00,5,1,10,0.00
2013-9-14,58,56,54,56,51,43,100,84,59,0.00,40.00,2,0,6,2.70
2013-9-15,72,58,49,57,54,40,100,86,55,0.00,40.00,4,1,7,0.00
2013-9-16,67,58,47,62,55,42,100,92,77,0.00,40.00,3,0,8,0.01
2013-9-17,61,52,40,53,48,40,100,84,59,0.00,40.00,4,1,8,0.00
2013-9-18,68,56,44,59,52,44,100,86,59,0.00,40.00,4,0,7,0.00
2013-9-19,71,58,48,59,54,48,100,89,55,0.00,40.00,4,1,7,0.00
2013-9-20,72,59,50,62,56,50,100,92,59,0.00,40.00,4,1,7,0.00
2013-9-21,67,59,51,65,59,51,100,99,89,0.00,40.00,7,2,12,0.00
2013-9-22,72,62,53,66,59,48,100,91,67,0.00,40.00,6,2,12,0.40
2013-9-23,63,53,45,52,47,44,99,82,61,0.00,40.00,4,2,11,0.00
2013-9-24,65,51,43,52,48,43,100,88,58,0.00,40.00,3,1,8,0.00
2013-9-25,61,52,44,54,50,44,100,93,74,0.00,40.00,4,1,8,0.00
2013-9-26,64,55,48,55,53,48,100,91,71,0.00,40.00,5,1,9,0.00
2013-9-27,68,58,52,59,54,52,100,89,59,0.00,40.00,4,1,9,0.00
2013-9-28,71,57,50,61,55,50,100,93,64,0.00,40.00,5,1,11,0.00
2013-9-29,62,53,48,58,52,48,100,97,80,0.00,40.00,5,1,8,0.00
2013-9-30,62,52,45,58,51,45,100,98,84,0.00,40.00,5,1,8,0.01
2013-10-1,63,52,47,58,52,47,100,98,80,0.00,40.00,0,0,0,0.00
2013-10-2,79,64,53,66,60,53,100,87,61,0.00,40.00,4,1,12,0.00
2013-10-3,75,62,54,61,58,54,100,88,55,0.00,40.00,3,0,6,0.00
2013-10-4,66,58,51,60,56,51,100,93,63,0.00,40.00,3,0,6,0.00
2013-10-5,63,58,56,58,57,56,100,95,81,0.00,40.00,4,0,9,0.00
2013-10-6,57,54,52,57,54,50,100,97,85,0.00,40.00,5,2,13,0.23
2013-10-7,68,61,56,68,61,51,100,100,68,0.00,40.00,8,4,18,0.13
2013-10-8,65,56,46,60,50,46,100,83,51,0.00,40.00,6,2,12,0.00
2013-10-9,60,49,41,51,46,41,100,92,67,0.00,40.00,5,0,8,0.00
2013-10-10,58,50,42,56,49,42,100,97,86,0.00,40.00,0,0,2,0.00
2013-10-11,65,54,47,58,52,47,100,94,72,0.00,40.00,1,0,2,0.00
2013-10-12,55,53,46,55,53,46,100,100,97,0.00,40.00,5,1,12,0.00
2013-10-13,58,48,43,55,47,43,100,97,76,0.00,40.00,5,0,9,0.00
2013-10-14,59,50,40,54,48,32,100,93,71,0.00,40.00,5,1,10,0.00
2013-10-15,61,56,53,58,55,53,100,97,87,0.00,40.00,4,1,8,0.00
2013-10-16,59,55,52,58,55,52,100,99,91,0.00,40.00,3,0,9,0.00
2013-10-17,74,60,54,62,57,54,100,89,63,0.00,40.00,3,0,8,0.00
2013-10-18,67,59,51,60,54,45,100,83,56,0.00,40.00,7,2,14,0.09
2013-10-19,65,54,43,56,49,42,100,84,55,0.00,40.00,5,2,12,0.00
2013-10-20,62,54,47,55,46,39,100,74,44,0.00,40.00,6,1,17,0.00
2013-10-21,60,50,40,55,47,40,100,88,60,0.00,40.00,0,0,6,0.00
2013-10-22,61,54,47,58,53,47,100,95,85,0.00,40.00,4,0,10,0.00
2013-10-23,53,48,39,43,41,38,100,76,58,0.00,40.00,2,1,6,0.00
2013-10-24,53,46,40,40,36,33,96,70,48,0.00,40.00,7,3,18,0.00
2013-10-25,49,42,35,38,34,30,100,77,50,0.00,40.00,7,3,14,0.00
2013-10-26,52,43,32,40,35,32,100,75,47,0.00,40.00,5,2,14,0.00
2013-10-27,56,47,39,46,40,29,100,76,53,0.00,40.00,6,3,12,0.06
2013-10-28,65,45,36,51,36,30,95,70,51,0.00,40.00,8,3,17,0.00
2013-10-29,53,37,28,32,30,25,100,78,42,30.07,30.07,6,2,9,0.00
2013-10-30,50,41,35,40,37,32,100,86,66,0.00,40.00,5,2,12,0.01
2013-10-31,59,45,33,59,45,33,100,100,96,0.00,40.00,6,2,14,0.08
2013-11-1,69,62,55,64,59,55,100,89,69,0.00,40.00,11,4,26,0.03
2013-11-2,64,53,46,55,49,46,100,88,54,0.00,40.00,4,1,10,0.01
2013-11-3,50,42,32,50,36,24,100,80,54,0.00,40.00,6,2,14,0.05
2013-11-4,42,34,28,30,24,20,96,70,45,0.00,40.00,6,2,11,0.00
2013-11-5,47,38,27,41,33,24,92,82,63,0.00,40.00,6,2,12,0.00
2013-11-6,55,48,40,51,46,38,98,90,77,0.00,40.00,7,3,14,0.00
2013-11-7,62,52,39,59,51,37,100,96,83,0.00,40.00,8,3,14,0.12
2013-11-8,46,40,34,37,32,29,90,75,58,0.00,40.00,8,3,21,0.00
2013-11-9,43,40,34,29,28,27,74,60,53,0.00,40.00,7,3,17,0.00
2013-11-10,48,45,39,46,42,38,100,91,82,0.00,40.00,5,2,11,0.06
2013-11-11,49,44,39,38,34,31,85,68,50,0.00,40.00,9,4,19,0.00
2013-11-12,47,36,28,39,26,19,93,69,61,0.00,40.00,8,4,21,0.01
2013-11-13,34,30,25,21,19,15,76,63,47,0.00,40.00,7,3,15,0.00
2013-11-14,50,39,29,36,28,20,85,66,52,0.00,40.00,6,2,12,0.00
2013-11-15,56,41,33,42,32,25,100,72,34,0.00,40.00,4,1,8,0.00
2013-11-16,44,37,33,42,35,32,100,92,69,0.00,40.00,3,1,5,0.00
2013-11-17,50,45,32,49,44,32,100,96,85,29.97,28.91,5,2,10,0.15
2013-11-18,62,54,47,56,46,34,95,75,49,28.87,27.60,8,3,17,0.20
2013-11-19,47,37,32,34,20,17,60,50,42,30.95,27.99,12,6,22,0.00
2013-11-20,40,33,28,21,17,13,72,51,33,31.98,30.95,6,3,14,0.00
2013-11-21,45,34,25,26,20,14,79,58,28,31.99,31.33,3,1,8,0.00
2013-11-22,41,39,34,39,34,25,94,84,58,31.33,29.40,2,0,5,0.05
2013-11-23,42,38,30,40,27,16,95,65,38,29.67,29.23,11,4,20,0.00
2013-11-24,31,24,19,19,7,0,66,47,37,30.49,29.18,14,8,30,0.00
2013-11-25,31,25,18,14,2,-6,49,37,21,31.22,30.49,10,4,21,0.00
2013-11-26,36,33,30,34,24,13,97,71,48,31.22,30.41,4,1,10,0.12
2013-11-27,55,47,35,54,46,31,96,93,63,30.39,27.34,21,7,33,1.44
2013-11-28,37,31,25,31,17,7,81,57,37,31.51,27.90,9,5,22,0.00
2013-11-29,31,25,19,12,9,5,69,51,34,31.99,31.49,7,3,11,0.00
2013-11-30,33,26,14,23,17,9,81,69,58,31.99,31.58,5,2,10,0.00
2013-12-1,37,35,32,36,31,24,96,87,69,31.57,30.16,6,2,13,0.18
2013-12-2,39,37,35,37,35,33,96,93,90,30.16,29.83,5,1,10,0.00
2013-12-3,45,38,32,38,34,29,96,88,66,29.86,29.55,5,0,8,0.00
2013-12-4,40,35,30,30,28,25,92,75,60,30.77,29.80,3,0,10,0.00
2013-12-5,46,39,29,44,37,27,96,91,81,30.88,29.79,5,0,8,0.03
2013-12-6,48,43,33,46,40,28,96,88,50,30.64,29.56,4,0,11,0.09
2013-12-7,37,33,28,32,24,15,95,72,51,31.58,30.35,7,0,12,0.18
2013-12-8,31,28,25,18,15,12,67,57,48,31.99,31.58,5,1,8,0.00
2013-12-9,40,34,29,39,30,17,96,85,59,31.80,29.63,9,4,20,0.22
2013-12-10,36,32,25,32,28,17,95,87,69,29.87,29.29,5,2,11,0.00
2013-12-11,33,27,21,20,17,16,83,67,51,30.66,29.88,5,1,12,0.00
2013-12-12,26,20,16,20,8,-11,82,59,22,30.96,30.21,9,1,14,0.00
2013-12-13,28,21,12,19,10,-2,72,64,53,31.47,29.90,6,2,12,0.00
2013-12-14,26,15,8,22,6,-3,90,69,49,31.99,30.99,8,4,16,0.00
2013-12-15,33,24,16,32,23,14,95,94,90,30.94,28.07,13,5,27,0.00
2013-12-16,24,21,12,22,17,4,94,85,64,30.77,29.03,8,2,18,0.04
2013-12-17,19,13,3,16,7,-2,93,78,63,31.07,29.48,7,2,12,0.00
2013-12-18,31,24,14,25,20,12,93,84,64,29.67,29.17,5,1,15,0.01
2013-12-19,38,32,23,28,24,19,85,73,57,29.80,29.40,5,2,11,0.06
2013-12-20,44,36,30,36,31,25,91,82,68,29.86,29.31,6,1,12,0.22
2013-12-21,49,40,34,42,36,22,96,87,46,29.41,29.15,4,1,6,0.01
2013-12-22,41,34,30,40,32,29,97,95,94,29.72,29.22,8,2,97,0.19
2013-12-23,34,32,30,33,31,29,97,96,94,29.88,29.51,28,0,126,0.38
2013-12-24,33,31,24,32,24,14,97,74,54,30.05,29.71,7,0,105,0.00
2013-12-25,24,18,10,15,6,-3,76,59,36,30.98,30.05,9,2,22,0.00
2013-12-26,34,24,17,32,20,10,94,84,58,30.87,29.77,22,0,109,0.00
2013-12-27,33,26,19,24,20,18,93,79,63,30.19,29.96,65,1,133,0.08
2013-12-28,42,34,24,30,26,19,84,71,58,30.05,29.46,38,1,142,0.04
2013-12-29,40,37,33,36,33,24,96,87,62,29.65,28.16,65,3,130,0.82
2013-12-30,40,31,15,34,24,4,95,76,56,30.03,28.27,7,1,66,0.01
2013-12-31,20,15,10,13,5,0,84,64,45,30.00,29.67,3,0,8,0.00
2014-1-1,26,21,17,14,9,-1,79,61,33,30.57,29.93,6,0,16,0.00
2014-1-2,19,7,-2,13,3,-10,90,82,55,30.54,29.36,11,6,19,0.00